sensor_id;sensor_type;location;lat;lon;timestamp;temperature;humidity
65995;HTU21D;52764;51.036;5.852;2023-06-05T00:02:01;18.62;57.31
65995;HTU21D;52764;51.036;5.852;2023-06-05T00:04:27;18.55;57.51
65995;HTU21D;52764;51.036;5.852;2023-06-05T00:06:54;18.49;57.72
65995;HTU21D;52764;51.036;5.852;2023-06-05T00:09:20;18.38;58.02
65995;HTU21D;52764;51.036;5.852;2023-06-05T00:11:46;18.32;58.22
65995;HTU21D;52764;51.036;5.852;2023-06-05T00:14:12;18.32;58.21
65995;HTU21D;52764;51.036;5.852;2023-06-05T00:16:37;18.26;58.45
65995;HTU21D;52764;51.036;5.852;2023-06-05T00:19:03;18.25;58.43
65995;HTU21D;52764;51.036;5.852;2023-06-05T00:21:29;18.23;58.54
65995;HTU21D;52764;51.036;5.852;2023-06-05T00:23:55;18.19;58.66
65995;HTU21D;52764;51.036;5.852;2023-06-05T00:26:21;18.18;58.72
65995;HTU21D;52764;51.036;5.852;2023-06-05T00:28:47;18.18;58.70
65995;HTU21D;52764;51.036;5.852;2023-06-05T00:31:13;18.19;58.70
65995;HTU21D;52764;51.036;5.852;2023-06-05T00:33:39;18.14;58.72
65995;HTU21D;52764;51.036;5.852;2023-06-05T00:36:05;18.12;58.81
65995;HTU21D;52764;51.036;5.852;2023-06-05T00:38:32;18.11;58.82
65995;HTU21D;52764;51.036;5.852;2023-06-05T00:40:58;18.09;58.84
65995;HTU21D;52764;51.036;5.852;2023-06-05T00:43:24;18.08;58.86
65995;HTU21D;52764;51.036;5.852;2023-06-05T00:45:58;18.07;58.80
65995;HTU21D;52764;51.036;5.852;2023-06-05T00:48:25;18.04;58.94
65995;HTU21D;52764;51.036;5.852;2023-06-05T00:50:52;17.99;59.05
65995;HTU21D;52764;51.036;5.852;2023-06-05T00:53:18;17.95;59.14
65995;HTU21D;52764;51.036;5.852;2023-06-05T00:55:44;17.88;59.31
65995;HTU21D;52764;51.036;5.852;2023-06-05T00:58:10;17.81;59.51
65995;HTU21D;52764;51.036;5.852;2023-06-05T01:00:36;17.78;59.60
65995;HTU21D;52764;51.036;5.852;2023-06-05T01:03:02;17.74;59.76
65995;HTU21D;52764;51.036;5.852;2023-06-05T01:05:28;17.73;59.76
65995;HTU21D;52764;51.036;5.852;2023-06-05T01:07:54;17.69;59.85
65995;HTU21D;52764;51.036;5.852;2023-06-05T01:10:20;17.67;59.93
65995;HTU21D;52764;51.036;5.852;2023-06-05T01:13:10;17.65;59.99
65995;HTU21D;52764;51.036;5.852;2023-06-05T01:15:39;17.63;59.97
65995;HTU21D;52764;51.036;5.852;2023-06-05T01:18:09;17.61;60.13
65995;HTU21D;52764;51.036;5.852;2023-06-05T01:20:37;17.53;60.26
65995;HTU21D;52764;51.036;5.852;2023-06-05T01:23:03;17.50;60.37
65995;HTU21D;52764;51.036;5.852;2023-06-05T01:25:30;17.46;60.57
65995;HTU21D;52764;51.036;5.852;2023-06-05T01:28:16;17.43;60.64
65995;HTU21D;52764;51.036;5.852;2023-06-05T01:33:15;17.32;60.91
65995;HTU21D;52764;51.036;5.852;2023-06-05T01:35:43;17.26;61.09
65995;HTU21D;52764;51.036;5.852;2023-06-05T01:38:11;17.20;61.18
65995;HTU21D;52764;51.036;5.852;2023-06-05T01:40:39;17.17;61.31
65995;HTU21D;52764;51.036;5.852;2023-06-05T01:43:08;17.10;61.53
65995;HTU21D;52764;51.036;5.852;2023-06-05T01:45:36;17.02;61.76
65995;HTU21D;52764;51.036;5.852;2023-06-05T01:48:07;16.98;61.86
65995;HTU21D;52764;51.036;5.852;2023-06-05T01:50:36;16.99;61.81
65995;HTU21D;52764;51.036;5.852;2023-06-05T01:53:04;16.95;61.92
65995;HTU21D;52764;51.036;5.852;2023-06-05T01:55:31;16.91;62.04
65995;HTU21D;52764;51.036;5.852;2023-06-05T01:57:57;16.87;62.18
65995;HTU21D;52764;51.036;5.852;2023-06-05T02:00:23;16.82;62.31
65995;HTU21D;52764;51.036;5.852;2023-06-05T02:02:49;16.76;62.41
65995;HTU21D;52764;51.036;5.852;2023-06-05T02:05:17;16.71;62.64
65995;HTU21D;52764;51.036;5.852;2023-06-05T02:07:46;16.65;62.81
65995;HTU21D;52764;51.036;5.852;2023-06-05T02:10:19;16.60;62.95
65995;HTU21D;52764;51.036;5.852;2023-06-05T02:12:46;16.60;62.89
65995;HTU21D;52764;51.036;5.852;2023-06-05T02:15:12;16.59;62.95
65995;HTU21D;52764;51.036;5.852;2023-06-05T02:17:39;16.55;63.21
65995;HTU21D;52764;51.036;5.852;2023-06-05T02:20:13;16.54;63.25
65995;HTU21D;52764;51.036;5.852;2023-06-05T02:22:42;16.50;63.24
65995;HTU21D;52764;51.036;5.852;2023-06-05T02:25:09;16.47;63.34
65995;HTU21D;52764;51.036;5.852;2023-06-05T02:27:39;16.46;63.33
65995;HTU21D;52764;51.036;5.852;2023-06-05T02:30:06;16.45;63.32
65995;HTU21D;52764;51.036;5.852;2023-06-05T02:32:32;16.40;63.37
65995;HTU21D;52764;51.036;5.852;2023-06-05T02:34:58;16.40;63.40
65995;HTU21D;52764;51.036;5.852;2023-06-05T02:37:28;16.40;63.37
65995;HTU21D;52764;51.036;5.852;2023-06-05T02:39:54;16.37;63.35
65995;HTU21D;52764;51.036;5.852;2023-06-05T02:42:20;16.35;63.40
65995;HTU21D;52764;51.036;5.852;2023-06-05T02:44:46;16.31;63.56
65995;HTU21D;52764;51.036;5.852;2023-06-05T02:47:13;16.30;63.53
65995;HTU21D;52764;51.036;5.852;2023-06-05T02:49:39;16.29;63.53
65995;HTU21D;52764;51.036;5.852;2023-06-05T02:52:06;16.26;63.58
65995;HTU21D;52764;51.036;5.852;2023-06-05T02:54:31;16.21;70.68
65995;HTU21D;52764;51.036;5.852;2023-06-05T02:57:01;16.16;63.76
65995;HTU21D;52764;51.036;5.852;2023-06-05T02:59:31;16.14;63.80
65995;HTU21D;52764;51.036;5.852;2023-06-05T03:01:58;16.13;63.87
65995;HTU21D;52764;51.036;5.852;2023-06-05T03:04:24;16.10;63.90
65995;HTU21D;52764;51.036;5.852;2023-06-05T03:06:54;16.05;64.07
65995;HTU21D;52764;51.036;5.852;2023-06-05T03:09:23;16.03;64.05
65995;HTU21D;52764;51.036;5.852;2023-06-05T03:11:52;16.05;64.10
65995;HTU21D;52764;51.036;5.852;2023-06-05T03:14:18;16.01;64.13
65995;HTU21D;52764;51.036;5.852;2023-06-05T03:16:44;15.96;64.34
65995;HTU21D;52764;51.036;5.852;2023-06-05T03:19:14;15.97;64.29
65995;HTU21D;52764;51.036;5.852;2023-06-05T03:21:42;15.90;64.49
65995;HTU21D;52764;51.036;5.852;2023-06-05T03:24:14;15.85;64.63
65995;HTU21D;52764;51.036;5.852;2023-06-05T03:26:43;15.82;64.85
65995;HTU21D;52764;51.036;5.852;2023-06-05T03:29:10;15.80;64.97
65995;HTU21D;52764;51.036;5.852;2023-06-05T03:31:36;15.80;64.85
65995;HTU21D;52764;51.036;5.852;2023-06-05T03:34:02;15.76;65.02
65995;HTU21D;52764;51.036;5.852;2023-06-05T03:36:30;15.76;65.13
65995;HTU21D;52764;51.036;5.852;2023-06-05T03:39:02;15.76;65.11
65995;HTU21D;52764;51.036;5.852;2023-06-05T03:41:28;15.75;65.15
65995;HTU21D;52764;51.036;5.852;2023-06-05T03:43:55;15.77;65.12
65995;HTU21D;52764;51.036;5.852;2023-06-05T03:46:22;15.81;65.06
65995;HTU21D;52764;51.036;5.852;2023-06-05T03:48:51;15.88;65.08
65995;HTU21D;52764;51.036;5.852;2023-06-05T03:51:26;16.10;64.71
65995;HTU21D;52764;51.036;5.852;2023-06-05T03:53:57;16.32;64.09
65995;HTU21D;52764;51.036;5.852;2023-06-05T03:56:27;16.57;63.49
65995;HTU21D;52764;51.036;5.852;2023-06-05T03:59:09;16.85;62.60
65995;HTU21D;52764;51.036;5.852;2023-06-05T04:01:44;17.15;61.66
65995;HTU21D;52764;51.036;5.852;2023-06-05T04:04:10;17.37;60.93
65995;HTU21D;52764;51.036;5.852;2023-06-05T04:06:36;17.59;60.43
65995;HTU21D;52764;51.036;5.852;2023-06-05T04:09:03;17.93;59.49
65995;HTU21D;52764;51.036;5.852;2023-06-05T04:11:42;18.29;58.23
65995;HTU21D;52764;51.036;5.852;2023-06-05T04:14:10;18.65;57.04
65995;HTU21D;52764;51.036;5.852;2023-06-05T04:16:39;18.99;56.04
65995;HTU21D;52764;51.036;5.852;2023-06-05T04:19:11;19.54;55.01
65995;HTU21D;52764;51.036;5.852;2023-06-05T04:21:38;19.55;53.65
65995;HTU21D;52764;51.036;5.852;2023-06-05T04:24:06;19.63;52.64
65995;HTU21D;52764;51.036;5.852;2023-06-05T04:26:34;19.52;52.27
65995;HTU21D;52764;51.036;5.852;2023-06-05T04:29:00;19.36;52.71
65995;HTU21D;52764;51.036;5.852;2023-06-05T04:31:29;19.16;53.11
65995;HTU21D;52764;51.036;5.852;2023-06-05T04:33:55;19.10;53.91
65995;HTU21D;52764;51.036;5.852;2023-06-05T04:36:22;19.47;54.46
65995;HTU21D;52764;51.036;5.852;2023-06-05T04:38:48;20.03;53.70
65995;HTU21D;52764;51.036;5.852;2023-06-05T04:41:14;20.61;51.56
65995;HTU21D;52764;51.036;5.852;2023-06-05T04:43:39;21.22;49.92
65995;HTU21D;52764;51.036;5.852;2023-06-05T04:46:05;21.74;48.66
65995;HTU21D;52764;51.036;5.852;2023-06-05T04:48:31;22.32;47.02
65995;HTU21D;52764;51.036;5.852;2023-06-05T04:50:57;22.85;46.01
65995;HTU21D;52764;51.036;5.852;2023-06-05T04:53:22;23.37;44.61
65995;HTU21D;52764;51.036;5.852;2023-06-05T04:55:48;23.82;43.54
65995;HTU21D;52764;51.036;5.852;2023-06-05T04:58:17;24.23;42.29
65995;HTU21D;52764;51.036;5.852;2023-06-05T05:00:45;24.41;41.47
65995;HTU21D;52764;51.036;5.852;2023-06-05T05:03:14;24.44;41.26
65995;HTU21D;52764;51.036;5.852;2023-06-05T05:05:42;24.66;41.08
65995;HTU21D;52764;51.036;5.852;2023-06-05T05:08:08;25.03;40.53
65995;HTU21D;52764;51.036;5.852;2023-06-05T05:10:34;25.38;39.46
65995;HTU21D;52764;51.036;5.852;2023-06-05T05:13:00;25.52;38.58
65995;HTU21D;52764;51.036;5.852;2023-06-05T05:15:30;25.49;38.68
65995;HTU21D;52764;51.036;5.852;2023-06-05T05:17:56;25.35;38.53
65995;HTU21D;52764;51.036;5.852;2023-06-05T05:20:23;25.90;37.82
65995;HTU21D;52764;51.036;5.852;2023-06-05T05:22:49;26.07;36.98
65995;HTU21D;52764;51.036;5.852;2023-06-05T05:25:16;26.18;37.27
65995;HTU21D;52764;51.036;5.852;2023-06-05T05:27:42;25.94;37.00
65995;HTU21D;52764;51.036;5.852;2023-06-05T05:30:08;26.03;36.72
65995;HTU21D;52764;51.036;5.852;2023-06-05T05:32:34;26.04;36.40
65995;HTU21D;52764;51.036;5.852;2023-06-05T05:35:00;25.96;36.78
65995;HTU21D;52764;51.036;5.852;2023-06-05T05:37:26;26.03;36.88
65995;HTU21D;52764;51.036;5.852;2023-06-05T05:39:52;26.20;36.46
65995;HTU21D;52764;51.036;5.852;2023-06-05T05:42:18;11.90;36.05
65995;HTU21D;52764;51.036;5.852;2023-06-05T05:44:44;26.81;35.60
65995;HTU21D;52764;51.036;5.852;2023-06-05T05:47:10;27.11;35.23
65995;HTU21D;52764;51.036;5.852;2023-06-05T05:49:36;27.49;34.41
65995;HTU21D;52764;51.036;5.852;2023-06-05T05:52:02;27.83;33.50
65995;HTU21D;52764;51.036;5.852;2023-06-05T05:54:29;27.93;33.09
65995;HTU21D;52764;51.036;5.852;2023-06-05T05:56:54;27.95;33.02
65995;HTU21D;52764;51.036;5.852;2023-06-05T05:59:21;27.96;32.75
65995;HTU21D;52764;51.036;5.852;2023-06-05T06:01:47;25.97;32.69
65995;HTU21D;52764;51.036;5.852;2023-06-05T06:04:17;27.98;32.48
65995;HTU21D;52764;51.036;5.852;2023-06-05T06:06:43;27.39;32.65
65995;HTU21D;52764;51.036;5.852;2023-06-05T06:09:09;28.18;32.48
65995;HTU21D;52764;51.036;5.852;2023-06-05T06:11:38;28.26;32.25
65995;HTU21D;52764;51.036;5.852;2023-06-05T06:14:04;15.57;32.17
65995;HTU21D;52764;51.036;5.852;2023-06-05T06:16:29;28.50;31.85
65995;HTU21D;52764;51.036;5.852;2023-06-05T06:18:56;28.68;31.52
65995;HTU21D;52764;51.036;5.852;2023-06-05T06:21:21;28.89;31.33
65995;HTU21D;52764;51.036;5.852;2023-06-05T06:23:47;28.91;31.06
65995;HTU21D;52764;51.036;5.852;2023-06-05T06:26:13;29.14;30.72
65995;HTU21D;52764;51.036;5.852;2023-06-05T06:28:41;29.33;30.41
65995;HTU21D;52764;51.036;5.852;2023-06-05T06:31:06;29.53;30.03
65995;HTU21D;52764;51.036;5.852;2023-06-05T06:33:32;29.62;29.59
65995;HTU21D;52764;51.036;5.852;2023-06-05T06:35:58;29.66;29.58
65995;HTU21D;52764;51.036;5.852;2023-06-05T06:38:25;29.64;11.50
65995;HTU21D;52764;51.036;5.852;2023-06-05T06:40:56;29.83;29.34
65995;HTU21D;52764;51.036;5.852;2023-06-05T06:43:22;30.01;29.06
65995;HTU21D;52764;51.036;5.852;2023-06-05T06:45:56;30.19;28.74
65995;HTU21D;52764;51.036;5.852;2023-06-05T06:48:22;30.32;28.54
65995;HTU21D;52764;51.036;5.852;2023-06-05T06:50:47;20.01;28.31
65995;HTU21D;52764;51.036;5.852;2023-06-05T06:53:13;21.53;27.94
65995;HTU21D;52764;51.036;5.852;2023-06-05T06:55:39;30.82;27.49
65995;HTU21D;52764;51.036;5.852;2023-06-05T06:58:05;30.76;27.84
65995;HTU21D;52764;51.036;5.852;2023-06-05T07:00:31;30.95;27.81
65995;HTU21D;52764;51.036;5.852;2023-06-05T07:02:56;31.19;27.42
65995;HTU21D;52764;51.036;5.852;2023-06-05T07:05:22;31.14;27.30
65995;HTU21D;52764;51.036;5.852;2023-06-05T07:07:48;31.44;27.30
65995;HTU21D;52764;51.036;5.852;2023-06-05T07:10:14;31.63;27.00
65995;HTU21D;52764;51.036;5.852;2023-06-05T07:12:40;31.86;26.20
65995;HTU21D;52764;51.036;5.852;2023-06-05T07:15:06;31.86;25.96
65995;HTU21D;52764;51.036;5.852;2023-06-05T07:17:31;31.86;26.14
65995;HTU21D;52764;51.036;5.852;2023-06-05T07:19:58;32.14;-3.79
65995;HTU21D;52764;51.036;5.852;2023-06-05T07:22:23;32.40;25.58
65995;HTU21D;52764;51.036;5.852;2023-06-05T07:24:54;32.61;25.14
65995;HTU21D;52764;51.036;5.852;2023-06-05T07:27:20;32.67;24.83
65995;HTU21D;52764;51.036;5.852;2023-06-05T07:29:46;35.24;24.62
65995;HTU21D;52764;51.036;5.852;2023-06-05T07:32:12;32.53;24.77
65995;HTU21D;52764;51.036;5.852;2023-06-05T07:34:38;32.56;24.88
65995;HTU21D;52764;51.036;5.852;2023-06-05T07:37:05;32.64;24.71
65995;HTU21D;52764;51.036;5.852;2023-06-05T07:39:33;32.75;24.79
65995;HTU21D;52764;51.036;5.852;2023-06-05T07:41:59;32.70;24.30
65995;HTU21D;52764;51.036;5.852;2023-06-05T07:44:25;32.75;55.21
65995;HTU21D;52764;51.036;5.852;2023-06-05T07:46:51;32.78;24.33
65995;HTU21D;52764;51.036;5.852;2023-06-05T07:49:18;32.77;24.37
65995;HTU21D;52764;51.036;5.852;2023-06-05T07:51:44;32.77;24.49
65995;HTU21D;52764;51.036;5.852;2023-06-05T07:54:13;32.86;24.36
65995;HTU21D;52764;51.036;5.852;2023-06-05T07:56:41;32.83;54.28
65995;HTU21D;52764;51.036;5.852;2023-06-05T07:59:08;32.69;24.56
65995;HTU21D;52764;51.036;5.852;2023-06-05T08:01:35;32.82;54.31
65995;HTU21D;52764;51.036;5.852;2023-06-05T08:04:05;32.78;24.50
65995;HTU21D;52764;51.036;5.852;2023-06-05T08:06:32;32.87;24.43
65995;HTU21D;52764;51.036;5.852;2023-06-05T08:09:01;32.73;24.43
65995;HTU21D;52764;51.036;5.852;2023-06-05T08:11:27;32.67;24.67
65995;HTU21D;52764;51.036;5.852;2023-06-05T08:13:54;32.82;24.61
65995;HTU21D;52764;51.036;5.852;2023-06-05T08:16:21;33.01;24.28
65995;HTU21D;52764;51.036;5.852;2023-06-05T08:18:47;33.17;24.09
65995;HTU21D;52764;51.036;5.852;2023-06-05T08:21:13;33.18;23.67
65995;HTU21D;52764;51.036;5.852;2023-06-05T08:23:39;31.96;23.66
65995;HTU21D;52764;51.036;5.852;2023-06-05T08:26:04;33.27;24.10
65995;HTU21D;52764;51.036;5.852;2023-06-05T08:28:41;33.17;23.90
65995;HTU21D;52764;51.036;5.852;2023-06-05T08:31:10;33.17;23.98
65995;HTU21D;52764;51.036;5.852;2023-06-05T08:33:37;33.19;23.75
65995;HTU21D;52764;51.036;5.852;2023-06-05T08:36:04;33.03;24.08
65995;HTU21D;52764;51.036;5.852;2023-06-05T08:38:32;30.57;24.35
65995;HTU21D;52764;51.036;5.852;2023-06-05T08:41:02;32.77;24.47
65995;HTU21D;52764;51.036;5.852;2023-06-05T08:43:31;33.59;24.05
65995;HTU21D;52764;51.036;5.852;2023-06-05T08:45:57;33.38;23.42
65995;HTU21D;52764;51.036;5.852;2023-06-05T08:48:25;30.05;22.82
65995;HTU21D;52764;51.036;5.852;2023-06-05T08:50:51;33.08;23.15
65995;HTU21D;52764;51.036;5.852;2023-06-05T08:53:19;33.01;23.68
65995;HTU21D;52764;51.036;5.852;2023-06-05T08:55:47;33.16;23.27
65995;HTU21D;52764;51.036;5.852;2023-06-05T08:58:13;30.97;23.28
65995;HTU21D;52764;51.036;5.852;2023-06-05T09:00:40;31.21;23.40
65995;HTU21D;52764;51.036;5.852;2023-06-05T09:03:06;33.34;22.91
65995;HTU21D;52764;51.036;5.852;2023-06-05T09:05:32;33.02;22.79
65995;HTU21D;52764;51.036;5.852;2023-06-05T09:07:58;32.50;23.85
65995;HTU21D;52764;51.036;5.852;2023-06-05T09:10:26;32.10;24.30
65995;HTU21D;52764;51.036;5.852;2023-06-05T09:12:54;31.56;24.56
65995;HTU21D;52764;51.036;5.852;2023-06-05T09:15:25;30.75;25.91
65995;HTU21D;52764;51.036;5.852;2023-06-05T09:18:11;29.88;27.13
65995;HTU21D;52764;51.036;5.852;2023-06-05T09:20:39;29.36;28.96
65995;HTU21D;52764;51.036;5.852;2023-06-05T09:23:28;29.13;30.24
65995;HTU21D;52764;51.036;5.852;2023-06-05T09:25:57;28.94;30.25
65995;HTU21D;52764;51.036;5.852;2023-06-05T09:28:22;28.87;30.76
65995;HTU21D;52764;51.036;5.852;2023-06-05T09:31:02;28.80;31.26
65995;HTU21D;52764;51.036;5.852;2023-06-05T09:33:30;28.73;31.16
65995;HTU21D;52764;51.036;5.852;2023-06-05T09:36:13;28.64;31.58
65995;HTU21D;52764;51.036;5.852;2023-06-05T09:38:40;28.48;31.41
65995;HTU21D;52764;51.036;5.852;2023-06-05T09:41:11;28.42;31.56
65995;HTU21D;52764;51.036;5.852;2023-06-05T09:43:38;28.31;31.77
65995;HTU21D;52764;51.036;5.852;2023-06-05T09:46:12;28.29;32.31
65995;HTU21D;52764;51.036;5.852;2023-06-05T09:48:39;26.27;32.12
65995;HTU21D;52764;51.036;5.852;2023-06-05T09:51:15;28.16;31.64
65995;HTU21D;52764;51.036;5.852;2023-06-05T09:53:49;28.13;31.20
65995;HTU21D;52764;51.036;5.852;2023-06-05T09:56:16;28.12;30.96
65995;HTU21D;52764;51.036;5.852;2023-06-05T09:58:47;28.06;31.23
65995;HTU21D;52764;51.036;5.852;2023-06-05T10:01:23;28.05;31.93
65995;HTU21D;52764;51.036;5.852;2023-06-05T10:04:02;28.04;31.75
65995;HTU21D;52764;51.036;5.852;2023-06-05T10:06:32;27.89;31.03
65995;HTU21D;52764;51.036;5.852;2023-06-05T10:08:59;27.66;30.88
65995;HTU21D;52764;51.036;5.852;2023-06-05T10:11:26;27.53;31.25
65995;HTU21D;52764;51.036;5.852;2023-06-05T10:13:53;27.32;31.96
65995;HTU21D;52764;51.036;5.852;2023-06-05T10:16:20;27.30;32.45
65995;HTU21D;52764;51.036;5.852;2023-06-05T10:18:47;27.40;32.50
65995;HTU21D;52764;51.036;5.852;2023-06-05T10:21:17;27.51;32.48
65995;HTU21D;52764;51.036;5.852;2023-06-05T10:23:45;27.44;32.71
65995;HTU21D;52764;51.036;5.852;2023-06-05T10:32:03;30.02;32.02
65995;HTU21D;52764;51.036;5.852;2023-06-05T10:40:01;26.86;32.93
65995;HTU21D;52764;51.036;5.852;2023-06-05T10:42:28;26.81;32.60
65995;HTU21D;52764;51.036;5.852;2023-06-05T10:44:55;26.90;32.32
65995;HTU21D;52764;51.036;5.852;2023-06-05T10:52:45;26.76;32.28
65995;HTU21D;52764;51.036;5.852;2023-06-05T10:55:12;26.81;32.20
65995;HTU21D;52764;51.036;5.852;2023-06-05T10:58:05;26.68;31.80
65995;HTU21D;52764;51.036;5.852;2023-06-05T11:00:33;26.66;32.09
65995;HTU21D;52764;51.036;5.852;2023-06-05T11:03:00;26.63;32.09
65995;HTU21D;52764;51.036;5.852;2023-06-05T11:05:26;23.36;32.36
65995;HTU21D;52764;51.036;5.852;2023-06-05T11:08:18;26.84;31.99
65995;HTU21D;52764;51.036;5.852;2023-06-05T11:11:05;26.97;32.17
65995;HTU21D;52764;51.036;5.852;2023-06-05T11:13:53;27.08;31.73
65995;HTU21D;52764;51.036;5.852;2023-06-05T11:16:33;27.04;32.00
65995;HTU21D;52764;51.036;5.852;2023-06-05T11:22:07;27.01;31.90
65995;HTU21D;52764;51.036;5.852;2023-06-05T11:24:34;27.07;31.74
65995;HTU21D;52764;51.036;5.852;2023-06-05T11:27:02;27.11;30.77
65995;HTU21D;52764;51.036;5.852;2023-06-05T11:29:29;27.04;30.74
65995;HTU21D;52764;51.036;5.852;2023-06-05T11:31:55;27.00;29.69
65995;HTU21D;52764;51.036;5.852;2023-06-05T11:34:21;27.01;30.20
65995;HTU21D;52764;51.036;5.852;2023-06-05T11:36:47;26.94;30.42
65995;HTU21D;52764;51.036;5.852;2023-06-05T11:39:13;26.94;30.70
65995;HTU21D;52764;51.036;5.852;2023-06-05T11:41:44;26.93;36.27
65995;HTU21D;52764;51.036;5.852;2023-06-05T11:44:11;26.95;30.22
65995;HTU21D;52764;51.036;5.852;2023-06-05T11:46:37;26.94;29.02
65995;HTU21D;52764;51.036;5.852;2023-06-05T11:49:03;26.86;28.33
65995;HTU21D;52764;51.036;5.852;2023-06-05T11:51:36;27.14;28.48
65995;HTU21D;52764;51.036;5.852;2023-06-05T11:54:02;27.19;28.58
65995;HTU21D;52764;51.036;5.852;2023-06-05T11:56:32;27.24;27.72
65995;HTU21D;52764;51.036;5.852;2023-06-05T11:58:58;27.34;27.65
65995;HTU21D;52764;51.036;5.852;2023-06-05T12:01:24;27.36;26.62
65995;HTU21D;52764;51.036;5.852;2023-06-05T12:04:05;27.40;27.11
65995;HTU21D;52764;51.036;5.852;2023-06-05T12:06:31;27.47;27.42
65995;HTU21D;52764;51.036;5.852;2023-06-05T12:09:12;27.45;28.39
65995;HTU21D;52764;51.036;5.852;2023-06-05T12:11:40;27.42;28.61
65995;HTU21D;52764;51.036;5.852;2023-06-05T12:14:06;27.23;28.62
65995;HTU21D;52764;51.036;5.852;2023-06-05T12:16:34;27.10;28.77
65995;HTU21D;52764;51.036;5.852;2023-06-05T12:19:01;27.11;28.97
65995;HTU21D;52764;51.036;5.852;2023-06-05T12:21:28;27.21;29.00
65995;HTU21D;52764;51.036;5.852;2023-06-05T12:24:05;27.11;29.13
65995;HTU21D;52764;51.036;5.852;2023-06-05T12:26:52;27.01;29.65
65995;HTU21D;52764;51.036;5.852;2023-06-05T12:29:23;27.10;29.06
65995;HTU21D;52764;51.036;5.852;2023-06-05T12:31:49;27.14;28.76
65995;HTU21D;52764;51.036;5.852;2023-06-05T12:34:15;27.17;28.60
65995;HTU21D;52764;51.036;5.852;2023-06-05T12:36:42;27.24;28.45
65995;HTU21D;52764;51.036;5.852;2023-06-05T12:39:15;27.20;28.56
65995;HTU21D;52764;51.036;5.852;2023-06-05T12:41:42;27.23;29.10
65995;HTU21D;52764;51.036;5.852;2023-06-05T12:44:09;27.35;28.72
65995;HTU21D;52764;51.036;5.852;2023-06-05T12:46:35;27.50;28.40
65995;HTU21D;52764;51.036;5.852;2023-06-05T12:49:03;27.56;30.98
65995;HTU21D;52764;51.036;5.852;2023-06-05T12:51:29;27.58;27.71
65995;HTU21D;52764;51.036;5.852;2023-06-05T12:53:56;27.67;27.97
65995;HTU21D;52764;51.036;5.852;2023-06-05T12:56:23;27.71;27.20
65995;HTU21D;52764;51.036;5.852;2023-06-05T12:58:56;27.75;27.36
65995;HTU21D;52764;51.036;5.852;2023-06-05T13:01:23;27.84;26.95
65995;HTU21D;52764;51.036;5.852;2023-06-05T13:03:49;27.87;26.32
65995;HTU21D;52764;51.036;5.852;2023-06-05T13:06:15;27.89;26.59
65995;HTU21D;52764;51.036;5.852;2023-06-05T13:08:41;27.85;26.48
65995;HTU21D;52764;51.036;5.852;2023-06-05T13:11:07;27.72;25.14
65995;HTU21D;52764;51.036;5.852;2023-06-05T13:13:33;27.46;26.23
65995;HTU21D;52764;51.036;5.852;2023-06-05T13:15:59;27.35;26.67
65995;HTU21D;52764;51.036;5.852;2023-06-05T13:18:27;27.27;26.84
65995;HTU21D;52764;51.036;5.852;2023-06-05T13:20:53;27.36;26.68
65995;HTU21D;52764;51.036;5.852;2023-06-05T13:23:19;27.34;26.40
65995;HTU21D;52764;51.036;5.852;2023-06-05T13:25:45;27.35;26.81
65995;HTU21D;52764;51.036;5.852;2023-06-05T13:28:10;27.46;26.73
65995;HTU21D;52764;51.036;5.852;2023-06-05T13:30:36;27.55;25.78
65995;HTU21D;52764;51.036;5.852;2023-06-05T13:33:02;27.60;25.31
65995;HTU21D;52764;51.036;5.852;2023-06-05T13:35:28;27.67;25.68
65995;HTU21D;52764;51.036;5.852;2023-06-05T13:37:53;27.73;25.67
65995;HTU21D;52764;51.036;5.852;2023-06-05T13:40:19;27.78;25.90
65995;HTU21D;52764;51.036;5.852;2023-06-05T13:42:45;27.71;25.53
65995;HTU21D;52764;51.036;5.852;2023-06-05T13:45:11;27.68;25.47
65995;HTU21D;52764;51.036;5.852;2023-06-05T13:47:37;27.76;25.23
65995;HTU21D;52764;51.036;5.852;2023-06-05T13:50:04;27.76;24.94
65995;HTU21D;52764;51.036;5.852;2023-06-05T13:52:30;27.79;24.46
65995;HTU21D;52764;51.036;5.852;2023-06-05T13:54:57;27.82;23.75
65995;HTU21D;52764;51.036;5.852;2023-06-05T13:57:23;27.54;24.27
65995;HTU21D;52764;51.036;5.852;2023-06-05T13:59:49;27.39;24.65
65995;HTU21D;52764;51.036;5.852;2023-06-05T14:02:15;27.34;25.73
65995;HTU21D;52764;51.036;5.852;2023-06-05T14:04:41;27.39;25.10
65995;HTU21D;52764;51.036;5.852;2023-06-05T14:07:06;27.45;24.42
65995;HTU21D;52764;51.036;5.852;2023-06-05T14:09:32;27.56;24.57
65995;HTU21D;52764;51.036;5.852;2023-06-05T14:11:59;27.54;25.02
65995;HTU21D;52764;51.036;5.852;2023-06-05T14:14:31;27.64;24.86
65995;HTU21D;52764;51.036;5.852;2023-06-05T14:16:56;27.59;24.73
65995;HTU21D;52764;51.036;5.852;2023-06-05T14:19:22;27.58;24.66
65995;HTU21D;52764;51.036;5.852;2023-06-05T14:21:48;27.57;24.88
65995;HTU21D;52764;51.036;5.852;2023-06-05T14:24:15;27.61;24.94
65995;HTU21D;52764;51.036;5.852;2023-06-05T14:26:41;27.65;25.20
65995;HTU21D;52764;51.036;5.852;2023-06-05T14:29:07;27.76;25.39
65995;HTU21D;52764;51.036;5.852;2023-06-05T14:31:32;27.80;25.16
65995;HTU21D;52764;51.036;5.852;2023-06-05T14:33:58;27.80;24.99
65995;HTU21D;52764;51.036;5.852;2023-06-05T14:36:24;27.79;25.33
65995;HTU21D;52764;51.036;5.852;2023-06-05T14:38:51;27.90;25.75
65995;HTU21D;52764;51.036;5.852;2023-06-05T14:41:16;14.93;25.59
65995;HTU21D;52764;51.036;5.852;2023-06-05T14:43:42;28.05;26.01
65995;HTU21D;52764;51.036;5.852;2023-06-05T14:46:08;28.13;25.02
65995;HTU21D;52764;51.036;5.852;2023-06-05T14:48:34;28.11;24.82
65995;HTU21D;52764;51.036;5.852;2023-06-05T14:50:59;28.16;25.30
65995;HTU21D;52764;51.036;5.852;2023-06-05T14:53:25;28.18;25.36
65995;HTU21D;52764;51.036;5.852;2023-06-05T14:55:53;28.15;25.39
65995;HTU21D;52764;51.036;5.852;2023-06-05T14:58:18;28.09;25.35
65995;HTU21D;52764;51.036;5.852;2023-06-05T15:00:45;28.01;25.93
65995;HTU21D;52764;51.036;5.852;2023-06-05T15:03:11;27.98;26.62
65995;HTU21D;52764;51.036;5.852;2023-06-05T15:05:36;27.93;25.99
65995;HTU21D;52764;51.036;5.852;2023-06-05T15:08:02;27.88;25.82
65995;HTU21D;52764;51.036;5.852;2023-06-05T15:10:28;27.87;26.33
65995;HTU21D;52764;51.036;5.852;2023-06-05T15:12:54;27.84;26.36
65995;HTU21D;52764;51.036;5.852;2023-06-05T15:15:23;27.85;26.63
65995;HTU21D;52764;51.036;5.852;2023-06-05T15:17:50;27.75;27.07
65995;HTU21D;52764;51.036;5.852;2023-06-05T15:20:18;27.66;29.00
65995;HTU21D;52764;51.036;5.852;2023-06-05T15:22:45;27.53;27.36
65995;HTU21D;52764;51.036;5.852;2023-06-05T15:25:11;27.51;27.36
65995;HTU21D;52764;51.036;5.852;2023-06-05T15:27:37;27.50;27.60
65995;HTU21D;52764;51.036;5.852;2023-06-05T15:30:04;27.55;27.62
65995;HTU21D;52764;51.036;5.852;2023-06-05T15:32:30;27.63;27.54
65995;HTU21D;52764;51.036;5.852;2023-06-05T15:34:56;27.60;27.39
65995;HTU21D;52764;51.036;5.852;2023-06-05T15:37:23;27.52;30.60
65995;HTU21D;52764;51.036;5.852;2023-06-05T15:39:49;25.12;27.89
65995;HTU21D;52764;51.036;5.852;2023-06-05T15:42:19;27.65;27.88